Terminal Aerodrome Forecast
Issued by NWS Billings, MT

Home | Current Version | Previous Version | Text Only | Print | Product List | Glossary Off
Versions: 1 2 3 4 5 6 7 8 9 10 11 12 13 14 15 16

000
FTUS45 KBYZ 271329 AAA
TAFMLS
TAF AMD
KMLS 271329Z 2713/2812 29019G28KT P6SM VCSH FEW030 BKN070
     FM271500 29025G38KT P6SM SCT060
     FM280000 31012G24KT P6SM SKC
     FM280800 28011KT P6SM SKC=

USA.gov is the U.S. government's official web portal to all federal, state and local government web resources and services.